sensor_id;sensor_type;location;lat;lon;timestamp;temperature;humidity
23385;DHT22;11865;45.394;10.978;2023-03-23T00:01:11;11.20;99.90
23385;DHT22;11865;45.394;10.978;2023-03-23T00:03:39;11.50;99.90
23385;DHT22;11865;45.394;10.978;2023-03-23T00:06:06;11.80;99.90
23385;DHT22;11865;45.394;10.978;2023-03-23T00:08:33;11.90;99.90
23385;DHT22;11865;45.394;10.978;2023-03-23T00:10:59;12.10;99.90
23385;DHT22;11865;45.394;10.978;2023-03-23T00:13:27;11.90;99.90
23385;DHT22;11865;45.394;10.978;2023-03-23T00:15:54;11.70;99.90
23385;DHT22;11865;45.394;10.978;2023-03-23T00:18:22;11.50;99.90
23385;DHT22;11865;45.394;10.978;2023-03-23T00:20:49;11.70;99.90
23385;DHT22;11865;45.394;10.978;2023-03-23T00:23:16;11.80;99.90
23385;DHT22;11865;45.394;10.978;2023-03-23T00:25:49;11.70;99.90
23385;DHT22;11865;45.394;10.978;2023-03-23T00:28:16;11.60;99.90
23385;DHT22;11865;45.394;10.978;2023-03-23T00:30:44;11.20;99.90
23385;DHT22;11865;45.394;10.978;2023-03-23T00:33:11;11.00;99.90
23385;DHT22;11865;45.394;10.978;2023-03-23T00:35:42;11.20;99.90
23385;DHT22;11865;45.394;10.978;2023-03-23T00:38:10;11.50;99.90
23385;DHT22;11865;45.394;10.978;2023-03-23T00:40:36;11.80;99.90
23385;DHT22;11865;45.394;10.978;2023-03-23T00:43:02;11.90;99.90
23385;DHT22;11865;45.394;10.978;2023-03-23T00:45:29;12.00;99.90
23385;DHT22;11865;45.394;10.978;2023-03-23T00:47:56;11.60;99.90
23385;DHT22;11865;45.394;10.978;2023-03-23T00:50:23;11.20;99.90
23385;DHT22;11865;45.394;10.978;2023-03-23T00:52:49;11.00;99.90
23385;DHT22;11865;45.394;10.978;2023-03-23T00:55:18;11.20;99.90
23385;DHT22;11865;45.394;10.978;2023-03-23T00:57:44;11.60;99.90
23385;DHT22;11865;45.394;10.978;2023-03-23T01:00:11;11.60;99.90
23385;DHT22;11865;45.394;10.978;2023-03-23T01:02:37;11.20;99.90
23385;DHT22;11865;45.394;10.978;2023-03-23T01:05:06;11.00;99.90
23385;DHT22;11865;45.394;10.978;2023-03-23T01:07:32;10.90;99.90
23385;DHT22;11865;45.394;10.978;2023-03-23T01:10:00;10.90;99.90
23385;DHT22;11865;45.394;10.978;2023-03-23T01:12:27;10.70;99.90
23385;DHT22;11865;45.394;10.978;2023-03-23T01:14:54;10.60;99.90
23385;DHT22;11865;45.394;10.978;2023-03-23T01:17:20;10.40;99.90
23385;DHT22;11865;45.394;10.978;2023-03-23T01:19:47;10.30;99.90
23385;DHT22;11865;45.394;10.978;2023-03-23T01:22:13;10.20;99.90
23385;DHT22;11865;45.394;10.978;2023-03-23T01:24:39;10.00;99.90
23385;DHT22;11865;45.394;10.978;2023-03-23T01:27:05;10.00;99.90
23385;DHT22;11865;45.394;10.978;2023-03-23T01:29:33;9.90;99.90
23385;DHT22;11865;45.394;10.978;2023-03-23T01:32:00;9.90;99.90
23385;DHT22;11865;45.394;10.978;2023-03-23T01:34:27;9.90;99.90
23385;DHT22;11865;45.394;10.978;2023-03-23T01:36:53;9.80;99.90
23385;DHT22;11865;45.394;10.978;2023-03-23T01:39:20;9.70;99.90
23385;DHT22;11865;45.394;10.978;2023-03-23T01:41:46;9.70;99.90
23385;DHT22;11865;45.394;10.978;2023-03-23T01:46:48;9.70;99.90
23385;DHT22;11865;45.394;10.978;2023-03-23T01:49:18;9.50;99.90
23385;DHT22;11865;45.394;10.978;2023-03-23T01:51:46;9.40;99.90
23385;DHT22;11865;45.394;10.978;2023-03-23T01:54:14;9.40;99.90
23385;DHT22;11865;45.394;10.978;2023-03-23T01:56:53;9.40;99.90
23385;DHT22;11865;45.394;10.978;2023-03-23T01:59:21;9.30;99.90
23385;DHT22;11865;45.394;10.978;2023-03-23T02:02:00;9.40;99.90
23385;DHT22;11865;45.394;10.978;2023-03-23T02:04:27;9.30;99.90
23385;DHT22;11865;45.394;10.978;2023-03-23T02:06:54;9.30;99.90
23385;DHT22;11865;45.394;10.978;2023-03-23T02:09:25;9.20;99.90
23385;DHT22;11865;45.394;10.978;2023-03-23T02:11:51;9.20;99.90
23385;DHT22;11865;45.394;10.978;2023-03-23T02:14:19;9.20;99.90
23385;DHT22;11865;45.394;10.978;2023-03-23T02:17:00;9.10;99.90
23385;DHT22;11865;45.394;10.978;2023-03-23T02:19:41;9.10;99.90
23385;DHT22;11865;45.394;10.978;2023-03-23T02:24:58;9.10;99.90
23385;DHT22;11865;45.394;10.978;2023-03-23T02:35:46;9.10;99.90
23385;DHT22;11865;45.394;10.978;2023-03-23T02:38:16;9.00;99.90
23385;DHT22;11865;45.394;10.978;2023-03-23T02:40:45;9.10;99.90
23385;DHT22;11865;45.394;10.978;2023-03-23T02:43:15;9.00;99.90
23385;DHT22;11865;45.394;10.978;2023-03-23T02:45:43;8.90;99.90
23385;DHT22;11865;45.394;10.978;2023-03-23T02:48:10;9.00;99.90
23385;DHT22;11865;45.394;10.978;2023-03-23T02:50:37;9.10;99.90
23385;DHT22;11865;45.394;10.978;2023-03-23T02:53:05;9.00;99.90
23385;DHT22;11865;45.394;10.978;2023-03-23T02:55:33;9.00;99.90
23385;DHT22;11865;45.394;10.978;2023-03-23T02:58:03;9.00;99.90
23385;DHT22;11865;45.394;10.978;2023-03-23T03:00:29;8.90;99.90
23385;DHT22;11865;45.394;10.978;2023-03-23T03:02:56;8.80;99.90
23385;DHT22;11865;45.394;10.978;2023-03-23T03:05:37;8.80;99.90
23385;DHT22;11865;45.394;10.978;2023-03-23T03:10:48;8.70;99.90
23385;DHT22;11865;45.394;10.978;2023-03-23T03:13:30;8.70;99.90
23385;DHT22;11865;45.394;10.978;2023-03-23T03:16:06;8.70;99.90
23385;DHT22;11865;45.394;10.978;2023-03-23T03:21:06;8.60;99.90
23385;DHT22;11865;45.394;10.978;2023-03-23T03:23:34;8.70;99.90
23385;DHT22;11865;45.394;10.978;2023-03-23T03:26:03;8.70;99.90
23385;DHT22;11865;45.394;10.978;2023-03-23T03:28:46;8.70;99.90
23385;DHT22;11865;45.394;10.978;2023-03-23T03:31:15;8.80;99.90
23385;DHT22;11865;45.394;10.978;2023-03-23T03:33:43;8.80;99.90
23385;DHT22;11865;45.394;10.978;2023-03-23T03:36:14;8.80;99.90
23385;DHT22;11865;45.394;10.978;2023-03-23T03:38:44;8.70;99.90
23385;DHT22;11865;45.394;10.978;2023-03-23T03:41:11;8.80;99.90
23385;DHT22;11865;45.394;10.978;2023-03-23T03:43:37;8.90;99.90
23385;DHT22;11865;45.394;10.978;2023-03-23T03:46:04;8.90;99.90
23385;DHT22;11865;45.394;10.978;2023-03-23T03:48:32;8.80;99.90
23385;DHT22;11865;45.394;10.978;2023-03-23T03:50:58;8.90;99.90
23385;DHT22;11865;45.394;10.978;2023-03-23T03:53:29;8.80;99.90
23385;DHT22;11865;45.394;10.978;2023-03-23T03:55:56;8.90;99.90
23385;DHT22;11865;45.394;10.978;2023-03-23T03:58:30;8.90;99.90
23385;DHT22;11865;45.394;10.978;2023-03-23T04:01:26;8.80;99.90
23385;DHT22;11865;45.394;10.978;2023-03-23T04:03:54;8.70;99.90
23385;DHT22;11865;45.394;10.978;2023-03-23T04:06:28;8.70;99.90
23385;DHT22;11865;45.394;10.978;2023-03-23T04:08:55;8.70;99.90
23385;DHT22;11865;45.394;10.978;2023-03-23T04:11:21;8.80;99.90
23385;DHT22;11865;45.394;10.978;2023-03-23T04:13:47;8.70;99.90
23385;DHT22;11865;45.394;10.978;2023-03-23T04:16:13;8.60;99.90
23385;DHT22;11865;45.394;10.978;2023-03-23T04:18:42;8.60;99.90
23385;DHT22;11865;45.394;10.978;2023-03-23T04:21:09;8.60;99.90
23385;DHT22;11865;45.394;10.978;2023-03-23T04:23:36;8.60;99.90
23385;DHT22;11865;45.394;10.978;2023-03-23T04:26:03;8.60;99.90
23385;DHT22;11865;45.394;10.978;2023-03-23T04:28:35;8.60;99.90
23385;DHT22;11865;45.394;10.978;2023-03-23T04:31:20;8.70;99.90
23385;DHT22;11865;45.394;10.978;2023-03-23T04:33:53;8.80;99.90
23385;DHT22;11865;45.394;10.978;2023-03-23T04:36:21;8.90;99.90
23385;DHT22;11865;45.394;10.978;2023-03-23T04:39:00;9.10;99.90
23385;DHT22;11865;45.394;10.978;2023-03-23T04:41:29;9.10;99.90
23385;DHT22;11865;45.394;10.978;2023-03-23T04:44:08;9.00;99.90
23385;DHT22;11865;45.394;10.978;2023-03-23T04:46:44;8.90;99.90
23385;DHT22;11865;45.394;10.978;2023-03-23T04:49:16;8.90;99.90
23385;DHT22;11865;45.394;10.978;2023-03-23T04:51:54;9.40;99.90
23385;DHT22;11865;45.394;10.978;2023-03-23T04:54:40;9.40;99.90
23385;DHT22;11865;45.394;10.978;2023-03-23T04:57:07;9.30;99.90
23385;DHT22;11865;45.394;10.978;2023-03-23T04:59:37;9.00;99.90
23385;DHT22;11865;45.394;10.978;2023-03-23T05:02:12;9.00;99.90
23385;DHT22;11865;45.394;10.978;2023-03-23T05:04:40;9.20;99.90
23385;DHT22;11865;45.394;10.978;2023-03-23T05:07:14;9.50;99.90
23385;DHT22;11865;45.394;10.978;2023-03-23T05:09:46;9.10;99.90
23385;DHT22;11865;45.394;10.978;2023-03-23T05:12:12;9.20;99.90
23385;DHT22;11865;45.394;10.978;2023-03-23T05:15:00;9.40;99.90
23385;DHT22;11865;45.394;10.978;2023-03-23T05:17:29;9.60;99.90
23385;DHT22;11865;45.394;10.978;2023-03-23T05:19:58;9.90;99.90
23385;DHT22;11865;45.394;10.978;2023-03-23T05:22:51;10.10;99.90
23385;DHT22;11865;45.394;10.978;2023-03-23T05:25:26;10.40;99.90
23385;DHT22;11865;45.394;10.978;2023-03-23T05:28:01;10.30;99.90
23385;DHT22;11865;45.394;10.978;2023-03-23T05:30:45;10.10;99.90
23385;DHT22;11865;45.394;10.978;2023-03-23T05:33:14;10.20;99.90
23385;DHT22;11865;45.394;10.978;2023-03-23T05:36:03;9.90;99.90
23385;DHT22;11865;45.394;10.978;2023-03-23T05:38:39;9.90;99.90
23385;DHT22;11865;45.394;10.978;2023-03-23T05:41:11;9.70;99.90
23385;DHT22;11865;45.394;10.978;2023-03-23T05:43:40;9.40;99.90
23385;DHT22;11865;45.394;10.978;2023-03-23T05:46:23;9.30;99.90
23385;DHT22;11865;45.394;10.978;2023-03-23T05:48:51;9.30;99.90
23385;DHT22;11865;45.394;10.978;2023-03-23T05:51:21;9.30;99.90
23385;DHT22;11865;45.394;10.978;2023-03-23T05:53:48;9.20;99.90
23385;DHT22;11865;45.394;10.978;2023-03-23T05:56:16;9.20;99.90
23385;DHT22;11865;45.394;10.978;2023-03-23T05:59:00;9.30;99.90
23385;DHT22;11865;45.394;10.978;2023-03-23T06:01:29;9.40;99.90
23385;DHT22;11865;45.394;10.978;2023-03-23T06:03:55;9.50;99.90
23385;DHT22;11865;45.394;10.978;2023-03-23T06:06:30;9.60;99.90
23385;DHT22;11865;45.394;10.978;2023-03-23T06:09:05;9.70;99.90
23385;DHT22;11865;45.394;10.978;2023-03-23T06:11:45;10.40;99.90
23385;DHT22;11865;45.394;10.978;2023-03-23T06:14:33;10.90;99.90
23385;DHT22;11865;45.394;10.978;2023-03-23T06:17:00;10.90;99.90
23385;DHT22;11865;45.394;10.978;2023-03-23T06:19:26;10.80;99.90
23385;DHT22;11865;45.394;10.978;2023-03-23T06:22:06;10.60;99.90
23385;DHT22;11865;45.394;10.978;2023-03-23T06:24:47;10.60;99.90
23385;DHT22;11865;45.394;10.978;2023-03-23T06:27:19;10.80;99.90
23385;DHT22;11865;45.394;10.978;2023-03-23T06:29:46;11.10;99.90
23385;DHT22;11865;45.394;10.978;2023-03-23T06:32:12;11.40;99.90
23385;DHT22;11865;45.394;10.978;2023-03-23T06:34:41;11.80;99.90
23385;DHT22;11865;45.394;10.978;2023-03-23T06:37:33;12.50;99.90
23385;DHT22;11865;45.394;10.978;2023-03-23T06:40:16;12.70;99.90
23385;DHT22;11865;45.394;10.978;2023-03-23T06:42:50;12.90;99.90
23385;DHT22;11865;45.394;10.978;2023-03-23T06:45:39;13.20;99.90
23385;DHT22;11865;45.394;10.978;2023-03-23T06:48:32;13.60;99.90
23385;DHT22;11865;45.394;10.978;2023-03-23T06:50:59;13.80;99.90
23385;DHT22;11865;45.394;10.978;2023-03-23T06:53:27;13.90;99.90
23385;DHT22;11865;45.394;10.978;2023-03-23T06:55:55;13.90;99.90
23385;DHT22;11865;45.394;10.978;2023-03-23T06:58:22;14.30;99.90
23385;DHT22;11865;45.394;10.978;2023-03-23T07:00:56;14.90;99.90
23385;DHT22;11865;45.394;10.978;2023-03-23T07:03:28;15.30;99.90
23385;DHT22;11865;45.394;10.978;2023-03-23T07:05:55;14.80;99.90
23385;DHT22;11865;45.394;10.978;2023-03-23T07:08:26;14.70;99.90
23385;DHT22;11865;45.394;10.978;2023-03-23T07:10:52;14.50;99.90
23385;DHT22;11865;45.394;10.978;2023-03-23T07:13:23;14.20;99.90
23385;DHT22;11865;45.394;10.978;2023-03-23T07:15:54;14.10;99.90
23385;DHT22;11865;45.394;10.978;2023-03-23T07:18:21;14.20;99.90
23385;DHT22;11865;45.394;10.978;2023-03-23T07:20:52;14.30;99.90
23385;DHT22;11865;45.394;10.978;2023-03-23T07:23:20;14.30;99.90
23385;DHT22;11865;45.394;10.978;2023-03-23T07:25:56;14.10;99.90
23385;DHT22;11865;45.394;10.978;2023-03-23T07:28:29;14.00;99.90
23385;DHT22;11865;45.394;10.978;2023-03-23T07:31:00;13.90;99.90
23385;DHT22;11865;45.394;10.978;2023-03-23T07:33:26;13.80;99.90
23385;DHT22;11865;45.394;10.978;2023-03-23T07:35:54;13.90;99.90
23385;DHT22;11865;45.394;10.978;2023-03-23T07:38:21;14.20;99.90
23385;DHT22;11865;45.394;10.978;2023-03-23T07:40:49;14.50;99.90
23385;DHT22;11865;45.394;10.978;2023-03-23T07:43:17;14.70;99.90
23385;DHT22;11865;45.394;10.978;2023-03-23T07:46:06;14.60;99.90
23385;DHT22;11865;45.394;10.978;2023-03-23T07:48:43;14.80;99.90
23385;DHT22;11865;45.394;10.978;2023-03-23T07:51:09;14.90;99.90
23385;DHT22;11865;45.394;10.978;2023-03-23T07:53:36;15.20;99.90
23385;DHT22;11865;45.394;10.978;2023-03-23T07:56:15;15.40;99.90
23385;DHT22;11865;45.394;10.978;2023-03-23T07:59:11;15.80;99.60
23385;DHT22;11865;45.394;10.978;2023-03-23T08:01:39;15.90;99.70
23385;DHT22;11865;45.394;10.978;2023-03-23T08:04:44;16.00;98.90
23385;DHT22;11865;45.394;10.978;2023-03-23T08:07:29;16.00;98.20
23385;DHT22;11865;45.394;10.978;2023-03-23T08:10:12;15.80;98.00
23385;DHT22;11865;45.394;10.978;2023-03-23T08:12:55;16.20;98.20
23385;DHT22;11865;45.394;10.978;2023-03-23T08:15:44;16.10;99.20
23385;DHT22;11865;45.394;10.978;2023-03-23T08:18:34;16.30;99.20
23385;DHT22;11865;45.394;10.978;2023-03-23T08:21:03;16.20;98.90
23385;DHT22;11865;45.394;10.978;2023-03-23T08:23:57;16.00;98.70
23385;DHT22;11865;45.394;10.978;2023-03-23T08:26:44;16.40;97.80
23385;DHT22;11865;45.394;10.978;2023-03-23T08:29:22;16.60;98.40
23385;DHT22;11865;45.394;10.978;2023-03-23T08:31:49;16.60;97.90
23385;DHT22;11865;45.394;10.978;2023-03-23T08:34:39;16.90;96.30
23385;DHT22;11865;45.394;10.978;2023-03-23T08:37:30;17.00;97.10
23385;DHT22;11865;45.394;10.978;2023-03-23T08:40:14;16.90;98.00
23385;DHT22;11865;45.394;10.978;2023-03-23T08:43:01;17.20;97.20
23385;DHT22;11865;45.394;10.978;2023-03-23T08:45:46;17.20;95.10
23385;DHT22;11865;45.394;10.978;2023-03-23T08:48:36;17.20;95.20
23385;DHT22;11865;45.394;10.978;2023-03-23T08:51:25;17.40;94.90
23385;DHT22;11865;45.394;10.978;2023-03-23T08:54:21;17.10;95.10
23385;DHT22;11865;45.394;10.978;2023-03-23T08:57:19;17.10;95.10
23385;DHT22;11865;45.394;10.978;2023-03-23T09:00:04;17.20;95.60
23385;DHT22;11865;45.394;10.978;2023-03-23T09:02:58;17.10;95.70
23385;DHT22;11865;45.394;10.978;2023-03-23T09:05:33;16.70;95.40
23385;DHT22;11865;45.394;10.978;2023-03-23T09:08:29;16.90;95.40
23385;DHT22;11865;45.394;10.978;2023-03-23T09:10:58;16.90;94.90
23385;DHT22;11865;45.394;10.978;2023-03-23T09:13:24;17.20;95.00
23385;DHT22;11865;45.394;10.978;2023-03-23T09:15:50;17.50;94.60
23385;DHT22;11865;45.394;10.978;2023-03-23T09:18:18;17.50;94.20
23385;DHT22;11865;45.394;10.978;2023-03-23T09:20:44;17.20;94.40
23385;DHT22;11865;45.394;10.978;2023-03-23T09:23:11;17.40;94.60
23385;DHT22;11865;45.394;10.978;2023-03-23T09:25:39;17.30;94.60
23385;DHT22;11865;45.394;10.978;2023-03-23T09:28:05;17.40;94.80
23385;DHT22;11865;45.394;10.978;2023-03-23T09:30:32;17.50;94.70
23385;DHT22;11865;45.394;10.978;2023-03-23T09:33:00;17.80;94.80
23385;DHT22;11865;45.394;10.978;2023-03-23T09:35:27;17.90;94.40
23385;DHT22;11865;45.394;10.978;2023-03-23T09:37:53;18.00;94.00
23385;DHT22;11865;45.394;10.978;2023-03-23T09:45:37;18.20;95.60
23385;DHT22;11865;45.394;10.978;2023-03-23T09:50:41;17.90;95.40
23385;DHT22;11865;45.394;10.978;2023-03-23T09:53:19;17.90;96.40
23385;DHT22;11865;45.394;10.978;2023-03-23T09:55:46;17.90;95.10
23385;DHT22;11865;45.394;10.978;2023-03-23T10:00:51;17.70;94.80
23385;DHT22;11865;45.394;10.978;2023-03-23T10:03:19;18.10;94.90
23385;DHT22;11865;45.394;10.978;2023-03-23T10:05:50;18.20;95.30
23385;DHT22;11865;45.394;10.978;2023-03-23T10:08:19;18.10;94.40
23385;DHT22;11865;45.394;10.978;2023-03-23T10:10:59;18.40;93.70
23385;DHT22;11865;45.394;10.978;2023-03-23T10:15:56;18.60;94.50
23385;DHT22;11865;45.394;10.978;2023-03-23T10:18:33;18.70;94.90
23385;DHT22;11865;45.394;10.978;2023-03-23T10:21:01;18.60;93.40
23385;DHT22;11865;45.394;10.978;2023-03-23T10:23:35;18.80;94.20
23385;DHT22;11865;45.394;10.978;2023-03-23T10:28:46;18.80;92.90
23385;DHT22;11865;45.394;10.978;2023-03-23T10:31:34;18.70;92.90
23385;DHT22;11865;45.394;10.978;2023-03-23T10:34:03;18.70;94.50
23385;DHT22;11865;45.394;10.978;2023-03-23T10:36:34;18.90;93.20
23385;DHT22;11865;45.394;10.978;2023-03-23T10:39:04;18.90;93.60
23385;DHT22;11865;45.394;10.978;2023-03-23T10:41:31;19.20;92.60
23385;DHT22;11865;45.394;10.978;2023-03-23T10:43:58;19.10;93.40
23385;DHT22;11865;45.394;10.978;2023-03-23T10:49:24;19.20;93.50
23385;DHT22;11865;45.394;10.978;2023-03-23T10:54:51;19.30;93.40
23385;DHT22;11865;45.394;10.978;2023-03-23T10:57:24;19.30;92.30
23385;DHT22;11865;45.394;10.978;2023-03-23T10:59:50;19.40;92.90
23385;DHT22;11865;45.394;10.978;2023-03-23T11:02:17;19.10;93.70
23385;DHT22;11865;45.394;10.978;2023-03-23T11:04:53;19.20;93.30
23385;DHT22;11865;45.394;10.978;2023-03-23T11:07:24;19.10;93.40
23385;DHT22;11865;45.394;10.978;2023-03-23T11:09:52;19.00;93.30
23385;DHT22;11865;45.394;10.978;2023-03-23T11:12:20;19.00;93.50
23385;DHT22;11865;45.394;10.978;2023-03-23T11:14:46;19.00;93.90
23385;DHT22;11865;45.394;10.978;2023-03-23T11:17:20;18.80;94.00
23385;DHT22;11865;45.394;10.978;2023-03-23T11:19:46;18.70;94.80
23385;DHT22;11865;45.394;10.978;2023-03-23T11:22:15;18.80;94.40
23385;DHT22;11865;45.394;10.978;2023-03-23T11:24:43;19.00;93.80
23385;DHT22;11865;45.394;10.978;2023-03-23T11:27:10;18.80;93.10
23385;DHT22;11865;45.394;10.978;2023-03-23T11:29:42;19.20;93.60
23385;DHT22;11865;45.394;10.978;2023-03-23T11:32:10;19.50;93.40
23385;DHT22;11865;45.394;10.978;2023-03-23T11:34:42;19.70;93.90
23385;DHT22;11865;45.394;10.978;2023-03-23T11:37:13;19.40;92.10
23385;DHT22;11865;45.394;10.978;2023-03-23T11:39:46;19.70;92.00
23385;DHT22;11865;45.394;10.978;2023-03-23T11:42:17;19.40;91.90
23385;DHT22;11865;45.394;10.978;2023-03-23T11:44:44;19.80;91.70
23385;DHT22;11865;45.394;10.978;2023-03-23T11:49:42;20.10;92.10
23385;DHT22;11865;45.394;10.978;2023-03-23T11:55:32;20.20;90.70
23385;DHT22;11865;45.394;10.978;2023-03-23T11:58:00;20.20;92.70
23385;DHT22;11865;45.394;10.978;2023-03-23T12:00:27;20.00;92.20
23385;DHT22;11865;45.394;10.978;2023-03-23T12:02:59;20.00;91.30
23385;DHT22;11865;45.394;10.978;2023-03-23T12:10:25;19.50;92.80
23385;DHT22;11865;45.394;10.978;2023-03-23T12:18:06;19.00;94.20
23385;DHT22;11865;45.394;10.978;2023-03-23T12:23:18;19.00;93.30
23385;DHT22;11865;45.394;10.978;2023-03-23T12:31:33;19.30;94.00
23385;DHT22;11865;45.394;10.978;2023-03-23T12:39:32;19.10;92.00
23385;DHT22;11865;45.394;10.978;2023-03-23T12:44:37;19.30;93.10
23385;DHT22;11865;45.394;10.978;2023-03-23T12:47:49;19.40;93.10
23385;DHT22;11865;45.394;10.978;2023-03-23T12:52:45;19.30;92.80
23385;DHT22;11865;45.394;10.978;2023-03-23T12:55:20;19.40;91.00
23385;DHT22;11865;45.394;10.978;2023-03-23T12:57:56;19.50;91.60
23385;DHT22;11865;45.394;10.978;2023-03-23T13:03:02;19.60;91.70
23385;DHT22;11865;45.394;10.978;2023-03-23T13:05:39;19.50;90.00
23385;DHT22;11865;45.394;10.978;2023-03-23T13:08:15;19.60;91.60
23385;DHT22;11865;45.394;10.978;2023-03-23T13:10:44;19.70;92.10
23385;DHT22;11865;45.394;10.978;2023-03-23T13:13:13;19.90;91.50
23385;DHT22;11865;45.394;10.978;2023-03-23T13:15:44;20.00;90.90
23385;DHT22;11865;45.394;10.978;2023-03-23T13:18:18;19.90;89.80
23385;DHT22;11865;45.394;10.978;2023-03-23T13:20:59;19.80;91.30
23385;DHT22;11865;45.394;10.978;2023-03-23T13:26:01;20.10;88.60
23385;DHT22;11865;45.394;10.978;2023-03-23T13:28:31;20.00;89.30
23385;DHT22;11865;45.394;10.978;2023-03-23T13:33:33;20.50;90.20
23385;DHT22;11865;45.394;10.978;2023-03-23T13:36:08;20.70;90.20
23385;DHT22;11865;45.394;10.978;2023-03-23T13:38:36;20.80;90.50
23385;DHT22;11865;45.394;10.978;2023-03-23T13:41:07;20.90;89.50
23385;DHT22;11865;45.394;10.978;2023-03-23T13:43:36;20.90;89.60
23385;DHT22;11865;45.394;10.978;2023-03-23T13:46:13;20.90;90.00
23385;DHT22;11865;45.394;10.978;2023-03-23T13:48:50;20.80;88.40
23385;DHT22;11865;45.394;10.978;2023-03-23T13:54:04;20.70;90.10
23385;DHT22;11865;45.394;10.978;2023-03-23T13:59:12;20.90;89.70
23385;DHT22;11865;45.394;10.978;2023-03-23T14:01:39;21.10;92.20
23385;DHT22;11865;45.394;10.978;2023-03-23T14:04:14;20.90;89.00
23385;DHT22;11865;45.394;10.978;2023-03-23T14:06:41;20.90;90.40
23385;DHT22;11865;45.394;10.978;2023-03-23T14:09:25;20.80;90.30
23385;DHT22;11865;45.394;10.978;2023-03-23T14:11:59;20.90;90.50
23385;DHT22;11865;45.394;10.978;2023-03-23T14:14:33;21.10;88.00
23385;DHT22;11865;45.394;10.978;2023-03-23T14:19:47;20.70;89.90
23385;DHT22;11865;45.394;10.978;2023-03-23T14:22:19;20.60;87.90
23385;DHT22;11865;45.394;10.978;2023-03-23T14:24:46;20.50;89.70
23385;DHT22;11865;45.394;10.978;2023-03-23T14:27:14;20.40;89.90
23385;DHT22;11865;45.394;10.978;2023-03-23T14:29:41;20.50;90.70
23385;DHT22;11865;45.394;10.978;2023-03-23T14:32:07;20.50;90.20
23385;DHT22;11865;45.394;10.978;2023-03-23T14:34:36;20.50;89.30
23385;DHT22;11865;45.394;10.978;2023-03-23T14:37:02;20.60;90.40
23385;DHT22;11865;45.394;10.978;2023-03-23T14:39:32;20.70;90.10
23385;DHT22;11865;45.394;10.978;2023-03-23T14:42:06;20.70;88.70
23385;DHT22;11865;45.394;10.978;2023-03-23T14:44:37;20.80;89.40
23385;DHT22;11865;45.394;10.978;2023-03-23T14:47:05;20.60;87.50
23385;DHT22;11865;45.394;10.978;2023-03-23T14:49:39;20.70;87.90
23385;DHT22;11865;45.394;10.978;2023-03-23T14:52:11;20.80;86.80
23385;DHT22;11865;45.394;10.978;2023-03-23T14:54:38;20.90;84.80
23385;DHT22;11865;45.394;10.978;2023-03-23T14:59:36;20.80;84.80
23385;DHT22;11865;45.394;10.978;2023-03-23T15:02:05;20.80;85.60
23385;DHT22;11865;45.394;10.978;2023-03-23T15:04:32;20.80;83.70
23385;DHT22;11865;45.394;10.978;2023-03-23T15:07:02;20.70;83.50
23385;DHT22;11865;45.394;10.978;2023-03-23T15:09:29;20.70;85.50
23385;DHT22;11865;45.394;10.978;2023-03-23T15:12:00;20.80;83.30
23385;DHT22;11865;45.394;10.978;2023-03-23T15:14:28;20.90;86.40
23385;DHT22;11865;45.394;10.978;2023-03-23T15:16:56;20.90;84.50
23385;DHT22;11865;45.394;10.978;2023-03-23T15:19:25;20.90;83.10
23385;DHT22;11865;45.394;10.978;2023-03-23T15:21:54;20.80;83.50
23385;DHT22;11865;45.394;10.978;2023-03-23T15:24:24;20.90;85.90
23385;DHT22;11865;45.394;10.978;2023-03-23T15:26:51;20.90;83.00
23385;DHT22;11865;45.394;10.978;2023-03-23T15:29:21;20.80;83.10
23385;DHT22;11865;45.394;10.978;2023-03-23T15:31:50;20.80;81.70
23385;DHT22;11865;45.394;10.978;2023-03-23T15:34:39;20.70;82.70
23385;DHT22;11865;45.394;10.978;2023-03-23T15:37:06;20.70;83.50
23385;DHT22;11865;45.394;10.978;2023-03-23T15:39:41;20.70;83.90
23385;DHT22;11865;45.394;10.978;2023-03-23T15:42:18;20.80;84.50
23385;DHT22;11865;45.394;10.978;2023-03-23T15:44:54;20.50;91.70
23385;DHT22;11865;45.394;10.978;2023-03-23T15:47:20;20.60;80.50
23385;DHT22;11865;45.394;10.978;2023-03-23T15:49:57;20.60;83.60
23385;DHT22;11865;45.394;10.978;2023-03-23T15:52:24;20.70;84.10
23385;DHT22;11865;45.394;10.978;2023-03-23T15:54:51;20.70;83.20
23385;DHT22;11865;45.394;10.978;2023-03-23T15:57:17;20.70;82.00
23385;DHT22;11865;45.394;10.978;2023-03-23T15:59:43;20.60;82.20
23385;DHT22;11865;45.394;10.978;2023-03-23T16:02:18;20.70;81.60
23385;DHT22;11865;45.394;10.978;2023-03-23T16:04:47;20.70;81.20
23385;DHT22;11865;45.394;10.978;2023-03-23T16:07:15;20.70;82.50
23385;DHT22;11865;45.394;10.978;2023-03-23T16:09:42;20.60;81.00
23385;DHT22;11865;45.394;10.978;2023-03-23T16:12:11;20.50;78.00
23385;DHT22;11865;45.394;10.978;2023-03-23T16:14:39;20.30;78.50
23385;DHT22;11865;45.394;10.978;2023-03-23T16:17:09;20.20;78.90
23385;DHT22;11865;45.394;10.978;2023-03-23T16:19:37;20.30;77.90
23385;DHT22;11865;45.394;10.978;2023-03-23T16:22:04;20.30;79.20
23385;DHT22;11865;45.394;10.978;2023-03-23T16:24:31;20.30;77.70
23385;DHT22;11865;45.394;10.978;2023-03-23T16:26:59;20.30;85.90
23385;DHT22;11865;45.394;10.978;2023-03-23T16:29:26;20.20;90.00
23385;DHT22;11865;45.394;10.978;2023-03-23T16:32:13;20.20;92.10
23385;DHT22;11865;45.394;10.978;2023-03-23T16:34:40;20.20;92.10
23385;DHT22;11865;45.394;10.978;2023-03-23T16:37:09;20.20;90.30
23385;DHT22;11865;45.394;10.978;2023-03-23T16:39:38;20.00;92.00
23385;DHT22;11865;45.394;10.978;2023-03-23T16:42:05;20.00;84.70
23385;DHT22;11865;45.394;10.978;2023-03-23T16:44:32;20.00;91.70
23385;DHT22;11865;45.394;10.978;2023-03-23T16:46:59;19.90;92.00
23385;DHT22;11865;45.394;10.978;2023-03-23T16:49:27;19.90;90.20
23385;DHT22;11865;45.394;10.978;2023-03-23T16:51:54;19.80;83.20
23385;DHT22;11865;45.394;10.978;2023-03-23T16:54:22;19.70;87.30
23385;DHT22;11865;45.394;10.978;2023-03-23T16:56:49;19.50;89.60
23385;DHT22;11865;45.394;10.978;2023-03-23T16:59:17;19.40;90.60
23385;DHT22;11865;45.394;10.978;2023-03-23T17:01:44;19.20;91.50
23385;DHT22;11865;45.394;10.978;2023-03-23T17:04:11;19.10;91.30
23385;DHT22;11865;45.394;10.978;2023-03-23T17:06:39;19.10;91.70
23385;DHT22;11865;45.394;10.978;2023-03-23T17:09:06;18.80;92.40
23385;DHT22;11865;45.394;10.978;2023-03-23T17:11:33;18.70;92.50
23385;DHT22;11865;45.394;10.978;2023-03-23T17:14:01;18.50;92.40
23385;DHT22;11865;45.394;10.978;2023-03-23T17:16:28;18.20;92.30
23385;DHT22;11865;45.394;10.978;2023-03-23T17:18:56;18.10;90.50
23385;DHT22;11865;45.394;10.978;2023-03-23T17:21:23;17.90;87.90